Time;durP1;ratioP1;P1;durP2;ratioP2;P2;SDS_P1;SDS_P2;PMS_P1;PMS_P2;Temp;Humidity;BMP_temperature;BMP_pressure;BME280_temperature;BME280_humidity;BME280_pressure;Samples;Min_cycle;Max_cycle;Signal;HPM_P1;HPM_P2
2023/01/05 00:01:35;;;;;;;3.13;1.75;;;;;;;10.92;100.00;101577.84;5060839;28;20031;-72
2023/01/05 00:04:01;;;;;;;4.68;1.67;;;;;;;10.93;100.00;101573.13;5060277;28;20029;-73
2023/01/05 00:06:27;;;;;;;3.72;1.45;;;;;;;10.92;100.00;101579.75;5074317;28;20431;-72
2023/01/05 00:08:53;;;;;;;3.95;1.95;;;;;;;10.91;100.00;101570.59;5040227;28;21446;-72
2023/01/05 00:22:31;;;;;;;5.35;2.30;;;;;;;10.91;100.00;101576.16;5081361;28;20039;-72
2023/01/05 00:25:02;;;;;;;4.07;1.80;;;;;;;10.91;100.00;101567.81;5065536;28;20384;-72
2023/01/05 00:27:27;;;;;;;3.97;2.00;;;;;;;10.91;100.00;101581.69;5071634;28;20028;-72
2023/01/05 00:29:53;;;;;;;4.22;1.63;;;;;;;10.92;100.00;101572.28;5077163;28;20039;-72
2023/01/05 00:32:19;;;;;;;3.13;1.85;;;;;;;10.92;100.00;101577.84;5043838;28;20028;-72
2023/01/05 00:34:44;;;;;;;3.05;1.70;;;;;;;10.90;100.00;101571.72;5060683;28;20028;-72
2023/01/05 00:37:10;;;;;;;6.00;2.00;;;;;;;10.91;100.00;101570.59;5040535;28;20052;-72
2023/01/05 00:39:35;;;;;;;4.45;2.33;;;;;;;10.92;100.00;101571.41;5071504;28;20043;-72
2023/01/05 00:42:01;;;;;;;4.07;1.90;;;;;;;10.92;100.00;101563.94;5055455;28;20043;-72
2023/01/05 00:44:26;;;;;;;3.83;1.77;;;;;;;10.92;100.00;101566.72;5071359;28;20411;-73
2023/01/05 00:46:51;;;;;;;4.10;2.28;;;;;;;10.93;100.00;101554.50;5073926;28;20084;-72
2023/01/05 00:49:17;;;;;;;3.03;2.05;;;;;;;10.93;100.00;101557.25;5074517;28;20029;-72
2023/01/05 00:51:42;;;;;;;4.18;2.17;;;;;;;10.93;100.00;101554.50;5057256;28;20029;-72
2023/01/05 00:54:08;;;;;;;7.97;2.80;;;;;;;10.94;100.00;101549.75;5071042;28;20032;-72
2023/01/05 00:56:33;;;;;;;4.15;2.10;;;;;;;10.93;100.00;101550.88;5040543;28;20021;-72
2023/01/05 00:58:59;;;;;;;7.40;2.20;;;;;;;10.92;100.00;101550.03;5061494;28;20074;-72
2023/01/05 01:01:24;;;;;;;5.60;1.80;;;;;;;10.92;100.00;101546.41;5077251;28;20088;-72
2023/01/05 01:03:50;;;;;;;4.72;2.00;;;;;;;10.93;100.00;101546.16;5097477;28;20062;-72
2023/01/05 01:06:23;;;;;;;4.97;1.90;;;;;;;10.94;100.00;101553.38;5047084;28;20031;-72
2023/01/05 01:08:49;;;;;;;4.07;1.95;;;;;;;10.93;100.00;101554.50;5097156;28;20052;-72
2023/01/05 01:11:15;;;;;;;2.30;1.85;;;;;;;10.92;100.00;101555.59;5047467;28;20039;-72
2023/01/05 01:13:42;;;;;;;4.10;1.95;;;;;;;10.94;100.00;101552.53;5064280;28;20031;-72
2023/01/05 01:16:09;;;;;;;3.75;1.83;;;;;;;10.93;100.00;101554.50;5080429;28;20425;-73
2023/01/05 01:18:35;;;;;;;5.15;2.28;;;;;;;10.94;100.00;101553.38;5063411;28;20511;-72
2023/01/05 01:21:00;;;;;;;4.22;1.88;;;;;;;10.93;100.00;101554.50;5065791;28;20024;-73
2023/01/05 01:23:26;;;;;;;3.35;1.70;;;;;;;10.93;100.00;101562.81;5062933;28;20108;-72
2023/01/05 01:25:51;;;;;;;6.68;1.90;;;;;;;10.93;100.00;101556.44;5068110;28;20024;-72
2023/01/05 01:28:17;;;;;;;4.03;1.98;;;;;;;10.93;100.00;101557.25;5096985;28;20031;-72
2023/01/05 01:30:42;;;;;;;2.80;1.83;;;;;;;10.92;100.00;101554.75;5080081;28;20032;-72
2023/01/05 01:33:07;;;;;;;5.90;2.20;;;;;;;10.92;100.00;101554.75;5079683;28;20062;-72
2023/01/05 01:35:36;;;;;;;7.20;1.98;;;;;;;10.92;100.00;101551.97;5063519;28;20480;-72
2023/01/05 01:38:01;;;;;;;4.47;2.10;;;;;;;10.92;100.00;101550.03;5063398;28;20037;-72
2023/01/05 01:40:27;;;;;;;7.63;2.20;;;;;;;10.91;100.00;101553.91;5046649;28;20387;-72
2023/01/05 01:42:52;;;;;;;4.78;2.00;;;;;;;10.91;100.00;101565.03;5068845;28;20031;-72
2023/01/05 01:45:19;;;;;;;5.80;2.00;;;;;;;10.91;100.00;101559.47;5079743;28;20028;-72
2023/01/05 01:47:56;;;;;;;5.82;2.38;;;;;;;10.91;100.00;101551.13;5096481;28;20032;-72
2023/01/05 01:50:41;;;;;;;4.88;1.80;;;;;;;10.90;100.00;101559.75;5079771;28;20024;-72
2023/01/05 01:53:13;;;;;;;5.53;1.95;;;;;;;10.89;100.00;101556.16;5046273;28;20623;-72
2023/01/05 01:55:39;;;;;;;5.57;1.75;;;;;;;10.87;100.00;101558.34;5079378;28;20024;-72
2023/01/05 01:58:06;;;;;;;5.53;2.17;;;;;;;10.87;100.00;101558.34;5076121;28;20044;-72
2023/01/05 02:00:31;;;;;;;5.07;1.90;;;;;;;10.88;100.00;101567.53;5073646;28;20043;-72
2023/01/05 02:02:57;;;;;;;5.45;1.75;;;;;;;10.87;100.00;101565.88;5062684;28;20035;-73
2023/01/05 02:05:28;;;;;;;4.05;1.75;;;;;;;10.88;100.00;101564.75;5046385;28;20058;-73
2023/01/05 02:07:53;;;;;;;3.10;1.40;;;;;;;10.85;100.00;101565.28;5062243;28;20134;-72
2023/01/05 02:10:40;;;;;;;4.82;1.80;;;;;;;10.87;100.00;101563.91;5062947;28;20028;-72
2023/01/05 02:13:32;;;;;;;3.47;1.70;;;;;;;10.86;100.00;101556.66;5096493;28;20043;-72
2023/01/05 02:16:07;;;;;;;5.73;2.07;;;;;;;10.87;100.00;101561.13;5082867;28;20036;-72
2023/01/05 02:19:00;;;;;;;5.00;1.73;;;;;;;10.86;100.00;101562.22;5077886;28;20040;-72
2023/01/05 02:21:47;;;;;;;4.57;1.90;;;;;;;10.86;100.00;101573.34;5092493;28;20114;-72
2023/01/05 02:24:37;;;;;;;4.40;1.90;;;;;;;10.85;100.00;101576.41;5077829;28;20059;-73
2023/01/05 02:27:30;;;;;;;2.28;1.60;;;;;;;10.86;100.00;101572.50;5093051;28;20032;-72
2023/01/05 02:30:35;;;;;;;4.72;1.70;;;;;;;10.85;100.00;101577.22;5095748;28;20457;-71
2023/01/05 02:33:22;;;;;;;4.85;1.90;;;;;;;10.85;100.00;101573.63;5087267;28;20047;-72
2023/01/05 02:35:53;;;;;;;5.63;2.22;;;;;;;10.85;100.00;101568.91;5078624;28;20032;-72
2023/01/05 02:38:41;;;;;;;3.05;1.23;;;;;;;10.84;100.00;101569.19;5061990;28;20039;-72
2023/01/05 02:41:33;;;;;;;4.10;1.38;;;;;;;10.84;100.00;101561.69;5060112;28;20029;-72
2023/01/05 02:43:59;;;;;;;2.80;1.58;;;;;;;10.85;100.00;101565.28;5085073;28;20036;-72
2023/01/05 02:46:25;;;;;;;2.95;1.35;;;;;;;10.84;100.00;101558.06;5095386;28;20089;-72
2023/01/05 02:48:50;;;;;;;4.47;1.70;;;;;;;10.83;100.00;101561.94;5062181;28;20028;-71
2023/01/05 02:51:20;;;;;;;3.17;1.40;;;;;;;10.84;100.00;101567.22;5092544;28;20028;-72
2023/01/05 02:53:50;;;;;;;3.22;1.27;;;;;;;10.83;100.00;101567.50;5042271;28;20029;-72
2023/01/05 02:56:22;;;;;;;3.85;1.58;;;;;;;10.84;100.00;101560.84;5040361;28;20048;-72
2023/01/05 02:59:01;;;;;;;2.38;1.42;;;;;;;10.82;100.00;101565.84;5038361;28;20028;-72
2023/01/05 03:01:33;;;;;;;1.73;1.20;;;;;;;10.81;100.00;101570.56;5042179;28;20033;-72
2023/01/05 03:04:06;;;;;;;3.17;1.38;;;;;;;10.82;100.00;101568.59;5072148;28;20435;-72
2023/01/05 03:06:45;;;;;;;2.75;1.15;;;;;;;10.81;100.00;101573.34;5062667;28;20024;-72
2023/01/05 03:09:11;;;;;;;2.28;1.20;;;;;;;10.83;100.00;101567.50;5060561;28;20108;-72
2023/01/05 03:14:55;;;;;;;4.35;1.60;;;;;;;10.82;100.00;101571.38;5084373;28;20055;-72
2023/01/05 03:17:25;;;;;;;4.45;1.50;;;;;;;10.81;100.00;101567.78;5061093;28;20024;-72
2023/01/05 03:19:51;;;;;;;3.42;1.52;;;;;;;10.81;100.00;101567.78;5044153;28;20441;-71
2023/01/05 03:36:42;;;;;;;2.95;1.63;;;;;;;10.81;100.00;101570.56;5080606;28;20047;-71
2023/01/05 03:39:09;;;;;;;2.15;1.77;;;;;;;10.80;100.00;101568.03;5061671;28;20056;-71
2023/01/05 03:41:34;;;;;;;3.08;1.70;;;;;;;10.79;100.00;101567.19;5058330;28;20044;-71
2023/01/05 03:44:00;;;;;;;3.53;1.70;;;;;;;10.79;100.00;101561.66;5067778;28;20062;-71
2023/01/05 03:46:25;;;;;;;4.13;1.90;;;;;;;10.80;100.00;101570.81;5044163;28;20020;-72
2023/01/05 03:48:51;;;;;;;2.97;1.70;;;;;;;10.80;100.00;101559.69;5040857;28;20515;-72
2023/01/05 03:51:16;;;;;;;3.80;1.38;;;;;;;10.79;100.00;101569.97;5057482;28;20032;-71
2023/01/05 03:53:42;;;;;;;5.38;1.55;;;;;;;10.78;100.00;101565.53;5061057;28;20028;-71
2023/01/05 03:56:07;;;;;;;3.42;1.55;;;;;;;10.78;100.00;101560.00;5060940;28;20078;-72
2023/01/05 03:58:33;;;;;;;3.90;1.50;;;;;;;10.78;100.00;101565.53;5077773;28;20028;-72
2023/01/05 04:00:58;;;;;;;4.47;1.90;;;;;;;10.78;100.00;101559.13;5092331;28;20028;-72
2023/01/05 04:03:24;;;;;;;3.13;1.60;;;;;;;10.78;100.00;101560.00;5060543;28;20550;-72
2023/01/05 04:05:49;;;;;;;3.22;1.50;;;;;;;10.78;100.00;101556.34;5074243;28;20024;-72
2023/01/05 04:08:15;;;;;;;5.43;1.95;;;;;;;10.77;100.00;101558.28;5094325;28;20039;-72
2023/01/05 04:10:41;;;;;;;3.95;1.77;;;;;;;10.77;100.00;101558.28;5074562;28;20035;-72
2023/01/05 04:13:06;;;;;;;3.03;1.63;;;;;;;10.77;100.00;101558.28;5084678;28;20024;-71
2023/01/05 04:15:32;;;;;;;5.07;1.75;;;;;;;10.77;100.00;101561.06;5077264;28;20078;-71
2023/01/05 04:17:57;;;;;;;3.15;1.48;;;;;;;10.77;100.00;101558.28;5057283;28;20175;-72
2023/01/05 04:20:23;;;;;;;4.55;1.67;;;;;;;10.76;100.00;101562.19;5057535;28;20396;-71
2023/01/05 04:22:48;;;;;;;5.03;1.70;;;;;;;10.77;100.00;101561.06;5076946;28;20065;-71
2023/01/05 04:25:14;;;;;;;7.80;1.60;;;;;;;10.75;100.00;101557.72;5077139;28;20024;-72
2023/01/05 04:27:39;;;;;;;4.40;1.55;;;;;;;10.75;100.00;101560.50;5095481;28;20028;-71
2023/01/05 04:30:05;;;;;;;5.90;1.90;;;;;;;10.75;100.00;101554.94;5060445;28;20035;-71
2023/01/05 04:32:31;;;;;;;4.68;2.08;;;;;;;10.75;100.00;101560.50;5046872;28;20024;-72
2023/01/05 04:34:56;;;;;;;3.47;1.60;;;;;;;10.75;100.00;101560.50;5079679;28;20039;-71
2023/01/05 04:37:22;;;;;;;3.33;1.35;;;;;;;10.75;100.00;101557.72;5077989;28;20048;-71
2023/01/05 04:39:47;;;;;;;4.43;1.42;;;;;;;10.76;100.00;101550.25;5076513;28;20555;-71
2023/01/05 04:42:13;;;;;;;2.63;1.60;;;;;;;10.75;100.00;101557.72;5080303;28;20035;-71
2023/01/05 04:44:38;;;;;;;4.05;1.52;;;;;;;10.74;100.00;101547.72;5063824;28;20028;-72
2023/01/05 04:47:04;;;;;;;4.45;1.70;;;;;;;10.73;100.00;101557.19;5060905;28;20066;-71
2023/01/05 04:49:29;;;;;;;2.97;1.55;;;;;;;10.74;100.00;101554.09;5076716;28;20056;-71
2023/01/05 04:51:55;;;;;;;2.65;1.50;;;;;;;10.73;100.00;101548.84;5097860;28;20032;-71
2023/01/05 04:54:20;;;;;;;5.70;1.75;;;;;;;10.73;100.00;101560.78;5080970;28;20036;-72
2023/01/05 04:56:46;;;;;;;4.68;1.48;;;;;;;10.72;100.00;101553.53;5063662;28;20028;-71
2023/01/05 04:59:11;;;;;;;3.63;2.47;;;;;;;10.73;100.00;101552.44;5097703;28;20031;-71
2023/01/05 05:01:37;;;;;;;6.38;1.83;;;;;;;10.72;100.00;101549.94;5060682;28;20032;-71
2023/01/05 05:04:02;;;;;;;4.82;1.70;;;;;;;10.70;100.00;101552.16;5052671;28;20092;-72
2023/01/05 05:06:28;;;;;;;2.58;1.40;;;;;;;10.70;100.00;101546.59;5080521;28;20051;-71
2023/01/05 05:08:53;;;;;;;3.25;1.60;;;;;;;10.70;100.00;101553.00;5063034;28;20036;-72
2023/01/05 05:11:19;;;;;;;3.40;1.60;;;;;;;10.71;100.00;101556.59;5080330;28;20032;-72
2023/01/05 05:13:45;;;;;;;2.35;1.73;;;;;;;10.70;100.00;101555.78;5080247;28;20040;-72
2023/01/05 05:16:10;;;;;;;3.42;1.70;;;;;;;10.71;100.00;101553.81;5047300;28;20028;-72
2023/01/05 05:18:36;;;;;;;6.05;2.20;;;;;;;10.71;100.00;101557.44;5097162;28;20028;-71
2023/01/05 05:21:01;;;;;;;4.03;1.95;;;;;;;10.72;100.00;101552.72;5060240;28;20028;-71
2023/01/05 05:23:27;;;;;;;4.03;2.05;;;;;;;10.70;100.00;101554.94;5078800;28;20032;-72
2023/01/05 05:25:52;;;;;;;5.22;2.10;;;;;;;10.69;100.00;101554.06;5067567;28;20028;-71
2023/01/05 05:28:18;;;;;;;4.55;1.80;;;;;;;10.71;100.00;101554.66;5080429;28;20020;-71
2023/01/05 05:30:44;;;;;;;5.05;1.70;;;;;;;10.72;100.00;101552.72;5080553;28;20024;-71
2023/01/05 05:33:09;;;;;;;3.25;1.73;;;;;;;10.72;100.00;101552.72;5079584;28;20031;-71
2023/01/05 05:35:35;;;;;;;8.05;2.03;;;;;;;10.71;100.00;101554.66;5076921;28;20041;-71
2023/01/05 05:38:00;;;;;;;4.47;1.90;;;;;;;10.71;100.00;101556.59;5074253;28;20050;-72
2023/01/05 05:40:27;;;;;;;3.55;1.60;;;;;;;10.71;100.00;101554.66;5063498;28;20028;-71
2023/01/05 05:42:53;;;;;;;4.55;2.20;;;;;;;10.70;100.00;101554.94;5052138;28;20020;-71
2023/01/05 05:45:18;;;;;;;3.80;1.70;;;;;;;10.71;100.00;101553.81;5059715;28;20035;-71
2023/01/05 05:47:44;;;;;;;6.05;1.88;;;;;;;10.70;100.00;101553.00;5074567;28;20028;-71
2023/01/05 05:50:09;;;;;;;2.35;1.48;;;;;;;10.72;100.00;101555.47;5046744;28;20032;-71
2023/01/05 05:52:35;;;;;;;3.60;1.45;;;;;;;10.70;100.00;101555.78;5063264;28;20093;-71
2023/01/05 05:55:00;;;;;;;3.22;1.55;;;;;;;10.70;100.00;101554.94;5096708;28;20031;-71
2023/01/05 05:57:26;;;;;;;1.58;1.40;;;;;;;10.70;100.00;101561.31;5096146;28;20081;-71
2023/01/05 05:59:51;;;;;;;2.95;1.48;;;;;;;10.71;100.00;101562.16;5062899;28;20031;-71
2023/01/05 06:02:18;;;;;;;3.72;1.58;;;;;;;10.71;100.00;101564.94;5077628;28;20393;-71
2023/01/05 06:04:44;;;;;;;4.82;1.80;;;;;;;10.71;100.00;101564.94;5080091;28;20096;-71
2023/01/05 06:07:10;;;;;;;4.82;1.48;;;;;;;10.71;100.00;101570.50;5046098;28;20044;-72
2023/01/05 06:09:35;;;;;;;1.83;1.50;;;;;;;10.69;100.00;101575.47;5079518;28;20514;-71
2023/01/05 06:12:01;;;;;;;2.75;1.40;;;;;;;10.68;100.00;101576.59;5044367;28;20021;-72
2023/01/05 06:14:26;;;;;;;3.15;1.40;;;;;;;10.68;100.00;101577.41;5042986;28;20384;-71
2023/01/05 06:16:52;;;;;;;3.30;1.40;;;;;;;10.68;100.00;101571.03;5073035;28;20067;-71
2023/01/05 06:19:17;;;;;;;3.28;1.48;;;;;;;10.67;100.00;101572.13;5059099;28;20085;-71
2023/01/05 06:21:43;;;;;;;4.07;1.60;;;;;;;10.68;100.00;101573.81;5070760;28;20036;-72
2023/01/05 06:24:08;;;;;;;3.92;1.50;;;;;;;10.67;100.00;101574.91;5056961;28;20051;-71
2023/01/05 06:26:34;;;;;;;3.35;0.98;;;;;;;10.66;100.00;101570.47;5046010;28;20031;-72
2023/01/05 06:28:59;;;;;;;6.55;1.60;;;;;;;10.67;100.00;101570.19;5042968;28;20115;-71
2023/01/05 06:31:25;;;;;;;2.40;1.33;;;;;;;10.67;100.00;101570.19;5079179;28;20032;-72
2023/01/05 06:33:50;;;;;;;2.80;1.50;;;;;;;10.66;100.00;101567.69;5082425;28;20035;-71
2023/01/05 06:36:15;;;;;;;4.38;1.40;;;;;;;10.67;100.00;101566.56;5061973;28;20105;-71
2023/01/05 06:38:41;;;;;;;3.88;1.73;;;;;;;10.63;100.00;101569.06;5078784;28;20032;-72
2023/01/05 06:41:06;;;;;;;6.40;1.58;;;;;;;10.62;100.00;101564.63;5079061;28;20028;-71
2023/01/05 06:43:32;;;;;;;6.50;1.70;;;;;;;10.62;100.00;101567.38;5041688;28;20027;-71
2023/01/05 06:45:57;;;;;;;3.97;1.38;;;;;;;10.63;100.00;101568.22;5042153;28;20036;-71
2023/01/05 06:48:23;;;;;;;7.85;1.52;;;;;;;10.63;100.00;101576.56;5049237;28;20020;-71
2023/01/05 06:50:49;;;;;;;13.23;1.88;;;;;;;10.61;100.00;101567.66;5078382;28;20020;-71
2023/01/05 06:53:14;;;;;;;5.75;1.48;;;;;;;10.61;100.00;101570.41;5061958;28;20028;-71
2023/01/05 06:55:39;;;;;;;5.10;1.45;;;;;;;10.58;100.00;101568.19;5095673;28;20036;-71
2023/01/05 06:58:05;;;;;;;8.52;1.90;;;;;;;10.58;100.00;101579.28;5078409;28;20032;-71
2023/01/05 07:00:30;;;;;;;9.20;2.30;;;;;;;10.57;100.00;101566.53;5095290;28;20491;-71
2023/01/05 07:02:56;;;;;;;5.35;1.50;;;;;;;10.55;100.00;101569.56;5044739;28;20102;-71
2023/01/05 07:05:23;;;;;;;6.78;1.60;;;;;;;10.55;100.00;101563.16;5055389;28;20029;-71
2023/01/05 07:07:49;;;;;;;7.10;2.15;;;;;;;10.55;100.00;101566.78;5065161;28;20712;-71
2023/01/05 07:10:14;;;;;;;7.80;2.00;;;;;;;10.52;100.00;101568.16;5095530;28;20024;-72
2023/01/05 07:12:40;;;;;;;9.23;2.10;;;;;;;10.51;100.00;101569.25;5096199;28;20037;-71
2023/01/05 07:15:06;;;;;;;10.63;1.95;;;;;;;10.47;100.00;101558.94;5061276;28;20047;-71
2023/01/05 07:17:31;;;;;;;4.90;1.58;;;;;;;10.47;100.00;101565.38;5061660;28;20032;-71
2023/01/05 07:19:57;;;;;;;5.22;2.47;;;;;;;10.44;100.00;101557.53;5078181;28;20035;-71
2023/01/05 07:22:22;;;;;;;4.50;1.63;;;;;;;10.42;100.00;101557.00;5077921;28;20020;-71
2023/01/05 07:24:48;;;;;;;7.45;1.77;;;;;;;10.40;100.00;101550.88;5078435;28;20035;-71
2023/01/05 07:27:13;;;;;;;7.95;1.88;;;;;;;10.36;100.00;101552.47;5094576;28;20028;-71
2023/01/05 07:29:39;;;;;;;7.40;1.52;;;;;;;10.30;100.00;101548.00;5095060;28;20028;-72
2023/01/05 07:32:05;;;;;;;3.08;1.50;;;;;;;10.30;100.00;101548.00;5060865;28;20040;-71
2023/01/05 07:34:30;;;;;;;13.07;2.00;;;;;;;10.27;100.00;101549.38;5044484;28;20024;-72
2023/01/05 07:36:56;;;;;;;11.05;1.90;;;;;;;10.24;100.00;101555.44;5094695;28;20052;-71
2023/01/05 07:39:21;;;;;;;6.88;1.80;;;;;;;10.20;100.00;101548.75;5061227;28;20046;-71
2023/01/05 07:41:47;;;;;;;7.53;1.83;;;;;;;10.17;100.00;101554.84;5058040;28;20081;-71
2023/01/05 07:44:12;;;;;;;9.27;2.22;;;;;;;10.16;100.00;101550.38;5076815;28;20032;-71
2023/01/05 07:46:38;;;;;;;8.70;2.10;;;;;;;10.12;100.00;101551.19;5059219;28;20031;-71
2023/01/05 07:49:03;;;;;;;10.77;2.35;;;;;;;10.07;100.00;101544.47;5061065;28;20020;-71
2023/01/05 07:51:29;;;;;;;6.85;1.85;;;;;;;10.06;100.00;101555.88;5060833;28;20032;-71
2023/01/05 07:53:54;;;;;;;9.27;2.58;;;;;;;10.04;100.00;101555.28;5041060;28;20196;-71
2023/01/05 07:56:20;;;;;;;5.80;1.65;;;;;;;10.01;100.00;101564.97;5076265;28;20411;-71
2023/01/05 07:58:45;;;;;;;8.02;2.53;;;;;;;9.97;100.00;101555.50;5094313;28;20028;-71
2023/01/05 08:01:12;;;;;;;8.93;2.22;;;;;;;9.97;100.00;101558.28;5060808;28;20085;-71
2023/01/05 08:03:38;;;;;;;11.32;1.90;;;;;;;9.93;100.00;101550.75;5060333;28;20027;-71
2023/01/05 08:06:05;;;;;;;12.20;2.35;;;;;;;9.92;100.00;101561.03;5078678;28;20916;-71
2023/01/05 08:08:30;;;;;;;12.32;2.60;;;;;;;9.89;100.00;101557.91;5078795;28;20036;-71
2023/01/05 08:10:56;;;;;;;10.10;2.28;;;;;;;9.86;100.00;101562.03;5060962;28;20036;-72
2023/01/05 08:16:06;;;;;;;6.53;1.80;;;;;;;9.78;100.00;101557.00;5087859;28;20084;-71
2023/01/05 08:18:31;;;;;;;11.60;2.47;;;;;;;9.72;100.00;101558.03;5063223;28;20020;-71
2023/01/05 08:20:58;;;;;;;9.88;2.88;;;;;;;9.70;100.00;101557.47;5056059;28;20037;-71
2023/01/05 08:23:24;;;;;;;8.70;2.15;;;;;;;9.66;100.00;101554.38;5064247;28;20498;-71
2023/01/05 08:25:50;;;;;;;10.00;2.10;;;;;;;9.62;100.00;101556.00;5085189;28;20067;-71
2023/01/05 08:28:15;;;;;;;14.57;2.90;;;;;;;9.58;100.00;101569.56;5047847;28;20043;-72
2023/01/05 08:30:41;;;;;;;14.68;2.72;;;;;;;9.57;100.00;101562.34;5046186;28;20082;-71
2023/01/05 08:33:06;;;;;;;13.95;2.95;;;;;;;9.53;100.00;101566.75;5064207;28;20063;-71
2023/01/05 08:35:32;;;;;;;14.38;2.25;;;;;;;9.52;100.00;101570.59;5064727;28;20527;-71
2023/01/05 08:37:57;;;;;;;13.40;2.85;;;;;;;9.50;100.00;101567.28;5080980;28;20044;-72
2023/01/05 08:40:26;;;;;;;14.95;2.72;;;;;;;9.47;100.00;101567.81;5080970;28;20028;-71
2023/01/05 08:42:51;;;;;;;14.32;2.47;;;;;;;9.47;100.00;101576.13;5072804;28;20111;-71
2023/01/05 08:45:17;;;;;;;12.35;2.80;;;;;;;9.46;100.00;101570.81;5080999;28;20063;-71
2023/01/05 08:47:42;;;;;;;14.73;2.30;;;;;;;9.44;100.00;101573.84;5064279;28;20652;-72
2023/01/05 08:50:08;;;;;;;10.02;2.08;;;;;;;9.43;100.00;101569.41;5097957;28;20028;-72
2023/01/05 08:52:35;;;;;;;12.20;2.47;;;;;;;9.44;100.00;101573.84;5097527;28;20094;-71
2023/01/05 08:55:01;;;;;;;13.68;2.78;;;;;;;9.45;100.00;101572.75;5095723;28;20436;-68
2023/01/05 08:57:26;;;;;;;16.50;2.42;;;;;;;9.47;100.00;101572.47;5092031;28;20060;-70
2023/01/05 08:59:52;;;;;;;10.27;2.25;;;;;;;9.45;100.00;101569.16;5080779;28;20031;-71
2023/01/05 09:02:18;;;;;;;15.07;2.85;;;;;;;9.45;100.00;101567.22;5062242;28;20424;-71
2023/01/05 09:04:43;;;;;;;16.83;2.45;;;;;;;9.49;100.00;101571.13;5080589;28;20054;-72
2023/01/05 09:07:08;;;;;;;11.63;2.83;;;;;;;9.50;100.00;101571.97;5063516;28;20099;-71
2023/01/05 09:09:34;;;;;;;12.05;2.47;;;;;;;9.54;100.00;101579.50;5043984;28;20485;-71
2023/01/05 09:12:00;;;;;;;15.93;2.95;;;;;;;9.59;100.00;101581.50;5092030;28;20024;-71
2023/01/05 09:14:25;;;;;;;11.18;2.90;;;;;;;9.62;100.00;101581.81;5064181;28;20396;-71
2023/01/05 09:16:51;;;;;;;14.07;3.25;;;;;;;9.66;100.00;101584.88;5046783;28;20036;-72
2023/01/05 09:19:16;;;;;;;13.88;3.10;;;;;;;9.71;100.00;101589.66;5061567;28;20027;-72
2023/01/05 09:21:42;;;;;;;14.10;3.00;;;;;;;9.75;100.00;101574.16;5080277;28;20043;-72
2023/01/05 09:24:07;;;;;;;14.88;3.60;;;;;;;9.80;100.00;101574.22;5047189;28;20028;-72
2023/01/05 09:26:33;;;;;;;14.73;2.65;;;;;;;9.83;100.00;101573.69;5060202;28;20016;-72
2023/01/05 09:28:59;;;;;;;11.23;2.40;;;;;;;9.89;100.00;101574.56;5063043;28;20376;-72
2023/01/05 09:31:24;;;;;;;16.10;3.40;;;;;;;9.94;100.00;101575.44;5079872;28;20054;-72
2023/01/05 09:33:50;;;;;;;16.90;2.95;;;;;;;10.01;100.00;101580.78;5098092;28;20024;-72
2023/01/05 09:36:16;;;;;;;15.00;2.80;;;;;;;10.04;100.00;101588.59;5060159;28;20048;-72
2023/01/05 09:38:42;;;;;;;16.92;3.45;;;;;;;10.10;100.00;101586.69;5063465;28;20032;-72
2023/01/05 09:41:32;;;;;;;18.45;3.03;;;;;;;10.16;100.00;101586.47;5080154;28;20110;-72
2023/01/05 09:44:01;;;;;;;15.50;2.70;;;;;;;10.21;100.00;101589.28;5086060;28;20024;-72
2023/01/05 09:46:29;;;;;;;21.40;3.38;;;;;;;10.27;100.00;101587.41;5079972;28;20103;-72
2023/01/05 09:48:58;;;;;;;22.08;3.75;;;;;;;10.33;100.00;101585.50;5079979;28;20054;-72
2023/01/05 09:51:24;;;;;;;17.13;2.83;;;;;;;10.36;100.00;101585.81;5076632;28;20500;-72
2023/01/05 09:53:49;;;;;;;20.83;3.08;;;;;;;10.43;100.00;101583.66;5034230;28;20029;-72
2023/01/05 09:56:21;;;;;;;14.63;2.70;;;;;;;10.47;100.00;101590.34;5073678;28;20098;-72
2023/01/05 09:58:46;;;;;;;15.18;2.78;;;;;;;10.54;100.00;101586.50;5061860;28;20016;-72
2023/01/05 10:01:14;;;;;;;18.33;3.20;;;;;;;10.57;100.00;101583.19;5074223;28;20040;-72
2023/01/05 10:04:10;;;;;;;21.23;3.78;;;;;;;10.63;100.00;101584.88;5079746;28;20028;-72
2023/01/05 10:06:38;;;;;;;18.50;3.40;;;;;;;10.69;100.00;101573.53;5045119;28;20100;-72
2023/01/05 10:09:04;;;;;;;22.95;3.08;;;;;;;10.76;100.00;101583.59;5059646;28;20118;-72
2023/01/05 10:14:45;;;;;;;21.30;2.92;;;;;;;10.85;100.00;101579.19;5069879;28;20453;-72
2023/01/05 10:17:16;;;;;;;15.63;2.20;;;;;;;10.91;100.00;101573.38;5079002;28;20121;-72
2023/01/05 10:19:42;;;;;;;13.45;2.38;;;;;;;10.94;100.00;101586.72;5034710;28;20032;-72
2023/01/05 10:22:26;;;;;;;17.55;3.22;;;;;;;10.99;100.00;101577.59;5077418;28;20523;-72
2023/01/05 10:24:56;;;;;;;14.95;2.92;;;;;;;11.04;100.00;101579.56;5084771;28;20090;-72
2023/01/05 10:27:43;;;;;;;20.65;2.83;;;;;;;11.08;100.00;101575.13;5076184;28;20086;-73
2023/01/05 10:30:21;;;;;;;18.65;3.00;;;;;;;11.12;100.00;101573.47;5073639;28;20369;-73
2023/01/05 10:33:13;;;;;;;21.25;3.47;;;;;;;11.16;100.00;101572.63;5045928;28;20025;-72
2023/01/05 10:36:06;;;;;;;19.85;3.03;;;;;;;11.24;100.00;101568.50;5036113;28;20550;-73
2023/01/05 10:38:32;;;;;;;20.20;2.97;;;;;;;11.28;100.00;101572.44;5095668;28;20040;-73
2023/01/05 10:41:31;;;;;;;14.45;3.50;;;;;;;11.31;100.00;101574.66;5095697;28;20418;-73
2023/01/05 10:44:18;;;;;;;12.48;2.67;;;;;;;11.36;100.00;101574.66;5083735;28;20040;-73
2023/01/05 10:46:46;;;;;;;17.65;3.45;;;;;;;11.39;100.00;101571.34;5074805;28;20067;-73
2023/01/05 10:49:17;;;;;;;17.30;2.58;;;;;;;11.40;100.00;101567.44;5054936;28;20032;-73
2023/01/05 10:51:42;;;;;;;19.98;3.13;;;;;;;11.46;100.00;101570.25;5066219;28;20106;-73
2023/01/05 10:54:21;;;;;;;18.13;3.10;;;;;;;11.49;100.00;101561.34;5045507;28;20031;-73
2023/01/05 10:56:46;;;;;;;20.73;2.85;;;;;;;11.50;100.00;101558.28;5063334;28;20028;-73
2023/01/05 10:59:14;;;;;;;14.93;2.30;;;;;;;11.54;100.00;101562.19;5061573;28;20031;-72
2023/01/05 11:01:43;;;;;;;18.60;3.20;;;;;;;11.58;100.00;101556.91;5096419;28;20028;-73
2023/01/05 11:04:14;;;;;;;12.90;2.35;;;;;;;11.60;100.00;101554.69;5095284;28;20035;-72
2023/01/05 11:06:40;;;;;;;16.52;2.80;;;;;;;11.62;100.00;101556.09;5058532;28;20032;-73
2023/01/05 11:09:12;;;;;;;14.93;2.13;;;;;;;11.68;100.00;101542.19;5071978;28;20035;-71
2023/01/05 11:11:37;;;;;;;12.70;2.20;;;;;;;11.66;100.00;101547.19;5085256;28;20032;-71
2023/01/05 11:14:03;;;;;;;17.58;2.63;;;;;;;11.68;100.00;101539.41;5078325;28;20081;-72
2023/01/05 11:16:31;;;;;;;11.38;2.50;;;;;;;11.69;100.00;101530.78;5061425;28;20036;-72
2023/01/05 11:18:56;;;;;;;17.02;2.50;;;;;;;11.72;100.00;101530.22;5078209;28;20391;-73
2023/01/05 11:21:22;;;;;;;17.48;2.55;;;;;;;11.75;100.00;101534.41;5074433;28;20030;-73
2023/01/05 11:23:58;;;;;;;19.90;2.38;;;;;;;11.77;100.00;101527.44;5089778;28;20473;-72
2023/01/05 11:26:36;;;;;;;13.30;2.42;;;;;;;11.78;100.00;101522.69;5049654;28;20028;-72
2023/01/05 11:29:07;;;;;;;15.30;2.60;;;;;;;11.82;100.00;101523.84;5062284;28;20024;-73
2023/01/05 11:31:33;;;;;;;16.42;2.53;;;;;;;11.83;100.00;101522.72;5091208;28;20501;-72
2023/01/05 11:33:59;;;;;;;18.55;3.17;;;;;;;11.87;100.00;101520.22;5077993;28;20039;-72
2023/01/05 11:36:25;;;;;;;17.50;3.00;;;;;;;11.86;100.00;101513.84;5077824;28;20052;-72
2023/01/05 11:38:54;;;;;;;18.30;3.17;;;;;;;11.89;100.00;101515.22;5077889;28;20032;-72
2023/01/05 11:41:23;;;;;;;15.70;2.45;;;;;;;11.90;100.00;101519.69;5044031;28;20031;-73
2023/01/05 11:43:49;;;;;;;13.02;2.45;;;;;;;11.90;100.00;101520.53;5057715;28;20181;-72
2023/01/05 11:46:15;;;;;;;12.90;2.40;;;;;;;11.92;100.00;101518.28;5056689;28;20063;-73
2023/01/05 11:48:52;;;;;;;22.20;2.60;;;;;;;11.96;100.00;101513.00;5074290;28;20052;-72
2023/01/05 11:51:38;;;;;;;13.32;2.45;;;;;;;11.98;100.00;101514.41;5061967;28;20060;-73
2023/01/05 11:54:04;;;;;;;17.95;2.78;;;;;;;11.98;100.00;101516.31;5077744;28;20039;-72